Airfield :
LOGIN :

Register | Disclaimer

   EN    FR    IT 

 










Legend :    VFR   Marginal VFR   IFR   Intensive IFR   Very Intensive IFR
Visi :
Ceiling :
>= 8 km
>= 3000ft
5 to 8 km
1000 to 3000 ft
1500m to 5 km
500 to 1000 ft
800 to 1500m
200 to 500 ft
< 800m
< 200 ft
Symbols :   Thunderstorms  Fog  Heavy snow  Heavy precipitations  Wind > 20 kt
SIGMETs :     Misc.  Thunderstorms  Icing  Turbulence  Mountain Waves  Volcanic Ashes






- Airport Elevation : 72 ft
- IATA code : UDE


EHVK - Volkel Airbase

CURRENT METAR :
  • 110425Z AUTO 11001KT 9999 SCT063 BKN071 BKN082 13/10 Q1008 BLU

EXPIRED METARs :
  • 110355Z AUTO 19003KT 9999 OVC051 13/10 Q1008 BLU
  • 110325Z AUTO 18004KT 120V200 9999 OVC051 13/09 Q1008 BLU
  • 110255Z AUTO 16003KT 9999 FEW084 BKN093 OVC110 12/09 Q1008 BLU
  • 110225Z AUTO 18001KT 9999 FEW080 BKN089 OVC098 13/09 Q1008 BLU
  • 110155Z AUTO 05002KT 9999 FEW066 OVC095 13/09 Q1007 BLU

TAF TAF EHVK
Valid from the 11 at 01:00 until the 11 at 13:00 UTC


110038Z 1101/1113 VRB02KT CAVOK
PROB30
TEMPO 1102/1106 4000 BR MIFG
TEMPO 1110/1113 VRB05G15KT 4500 SCT025CB BKN050
PROB30
TEMPO 1112/1113 3000 TSRA



MET'MAP, your aeronautical weather chart ! - Copyright ORBIFLY December 2007 - Disclaimer

ORBIFLY MET'MAP TEAM :

Programming & Development : Alexandra Zaïnal
Concept & original design : Baudouin d'Aumeries
Assistance for programming : Marc-Olivier Méhu
Technical & hardware support : Manuel Goepfert

Contact : metmap@orbifly.com




SOURCES & CREDITS :

   NOAA